Time;durP1;ratioP1;P1;durP2;ratioP2;P2;SDS_P1;SDS_P2;PMS_P1;PMS_P2;Temp;Humidity;BMP_temperature;BMP_pressure;BME280_temperature;BME280_humidity;BME280_pressure;Samples;Min_cycle;Max_cycle;Signal;HPM_P1;HPM_P2
2023/09/15 00:00:17;;;;;;;2.65;1.67;;;;;;;;;;5007815;28;20026;-81
2023/09/15 00:02:43;;;;;;;3.22;1.20;;;;;;;;;;5008306;28;22061;-81
2023/09/15 00:05:10;;;;;;;1.73;1.13;;;;;;;;;;5018095;28;20049;-81
2023/09/15 00:07:36;;;;;;;4.15;1.55;;;;;;;;;;5011283;28;20063;-81
2023/09/15 00:10:05;;;;;;;4.80;1.33;;;;;;;;;;5013885;28;20026;-81
2023/09/15 00:12:31;;;;;;;3.10;1.90;;;;;;;;;;5013237;28;20049;-81
2023/09/15 00:14:57;;;;;;;2.15;1.08;;;;;;;;;;4992462;28;20046;-81
2023/09/15 00:17:25;;;;;;;2.67;1.20;;;;;;;;;;5007693;28;20061;-81
2023/09/15 00:19:51;;;;;;;2.58;1.50;;;;;;;;;;5008725;28;20034;-82
2023/09/15 00:22:17;;;;;;;2.38;1.40;;;;;;;;;;5008750;28;20503;-81
2023/09/15 00:24:43;;;;;;;3.28;1.55;;;;;;;;;;5007279;28;20021;-81
2023/09/15 00:27:09;;;;;;;0.82;0.82;;;;;;;;;;5008345;28;20850;-81
2023/09/15 00:29:36;;;;;;;1.25;1.02;;;;;;;;;;4990293;28;20022;-81
2023/09/15 00:32:02;;;;;;;1.92;1.50;;;;;;;;;;4989146;28;20022;-81
2023/09/15 00:34:28;;;;;;;1.65;1.27;;;;;;;;;;4995664;28;20054;-81
2023/09/15 00:36:54;;;;;;;2.08;1.40;;;;;;;;;;4988942;28;20257;-81
2023/09/15 00:39:20;;;;;;;2.55;1.33;;;;;;;;;;4995396;28;20038;-81
2023/09/15 00:41:46;;;;;;;1.35;1.05;;;;;;;;;;4994525;28;20373;-81
2023/09/15 00:44:12;;;;;;;2.40;1.05;;;;;;;;;;5011594;28;20048;-81
2023/09/15 00:46:38;;;;;;;1.48;1.20;;;;;;;;;;5010804;28;20022;-81
2023/09/15 00:49:05;;;;;;;1.02;0.80;;;;;;;;;;5003783;28;20026;-81
2023/09/15 00:51:32;;;;;;;2.72;1.02;;;;;;;;;;5019537;28;20033;-81
2023/09/15 00:53:58;;;;;;;1.65;1.33;;;;;;;;;;5009194;28;20101;-81
2023/09/15 00:56:25;;;;;;;1.23;1.13;;;;;;;;;;5010404;28;20029;-81
2023/09/15 00:58:51;;;;;;;2.63;1.17;;;;;;;;;;5007805;28;20092;-82
2023/09/15 01:01:18;;;;;;;2.10;1.20;;;;;;;;;;5009463;28;20030;-81
2023/09/15 01:03:44;;;;;;;1.83;1.20;;;;;;;;;;5010404;28;20018;-81
2023/09/15 01:06:12;;;;;;;1.23;1.00;;;;;;;;;;4977713;28;994754;-81
2023/09/15 01:08:38;;;;;;;1.30;0.80;;;;;;;;;;5016976;28;20403;-81
2023/09/15 01:11:07;;;;;;;1.15;0.98;;;;;;;;;;5010130;28;20033;-81
2023/09/15 01:13:33;;;;;;;0.88;0.88;;;;;;;;;;5008148;28;20105;-81
2023/09/15 01:16:12;;;;;;;0.50;0.50;;;;;;;;;;5002990;28;20083;-81
2023/09/15 01:18:42;;;;;;;0.70;0.70;;;;;;;;;;5008890;28;20041;-81
2023/09/15 01:21:36;;;;;;;1.48;0.88;;;;;;;;;;5013200;28;20033;-81
2023/09/15 01:24:18;;;;;;;1.85;1.25;;;;;;;;;;4995692;28;20050;-81
2023/09/15 01:27:01;;;;;;;0.75;0.73;;;;;;;;;;5019586;28;20025;-81
2023/09/15 01:29:39;;;;;;;0.88;0.65;;;;;;;;;;5007293;28;20022;-81
2023/09/15 01:32:09;;;;;;;0.77;0.70;;;;;;;;;;5012417;28;20092;-81
2023/09/15 01:34:39;;;;;;;1.65;1.30;;;;;;;;;;5006764;28;20060;-81
2023/09/15 01:37:05;;;;;;;2.10;1.00;;;;;;;;;;5016766;28;20203;-81
2023/09/15 01:39:34;;;;;;;1.73;0.82;;;;;;;;;;5006813;28;20053;-81
2023/09/15 01:42:00;;;;;;;0.77;0.70;;;;;;;;;;5010186;28;20022;-81
2023/09/15 01:44:27;;;;;;;1.60;0.75;;;;;;;;;;5017106;28;20038;-81
2023/09/15 01:46:53;;;;;;;1.85;1.10;;;;;;;;;;5015792;28;20128;-81
2023/09/15 01:49:20;;;;;;;3.55;1.23;;;;;;;;;;5016788;28;20030;-81
2023/09/15 01:51:46;;;;;;;0.85;0.85;;;;;;;;;;5028915;28;20048;-81
2023/09/15 01:54:12;;;;;;;1.58;0.93;;;;;;;;;;5017603;28;20060;-81
2023/09/15 01:56:38;;;;;;;2.85;1.17;;;;;;;;;;5017162;28;20030;-81
2023/09/15 01:59:04;;;;;;;2.67;0.70;;;;;;;;;;5016628;28;20036;-82
2023/09/15 02:01:31;;;;;;;1.60;0.80;;;;;;;;;;5015237;28;20124;-81
2023/09/15 02:03:56;;;;;;;1.77;1.15;;;;;;;;;;5012764;28;20027;-81
2023/09/15 02:06:22;;;;;;;1.02;0.90;;;;;;;;;;5018249;28;20103;-81
2023/09/15 02:08:49;;;;;;;1.15;1.02;;;;;;;;;;5019788;28;20087;-82
2023/09/15 02:11:15;;;;;;;1.17;1.05;;;;;;;;;;5020506;28;20108;-81
2023/09/15 02:13:41;;;;;;;1.27;0.90;;;;;;;;;;5016344;28;20041;-81
2023/09/15 02:16:07;;;;;;;1.10;0.80;;;;;;;;;;5018113;28;20492;-82
2023/09/15 02:18:33;;;;;;;0.75;0.75;;;;;;;;;;5011838;28;20547;-81
2023/09/15 02:21:03;;;;;;;1.45;0.85;;;;;;;;;;5019320;28;20033;-81
2023/09/15 02:23:29;;;;;;;0.85;0.80;;;;;;;;;;5022911;28;20018;-81
2023/09/15 02:25:55;;;;;;;1.17;0.70;;;;;;;;;;5015848;28;20380;-81
2023/09/15 02:28:21;;;;;;;1.55;0.93;;;;;;;;;;5009078;28;20492;-81
2023/09/15 02:30:48;;;;;;;0.77;0.73;;;;;;;;;;5012375;28;20022;-81
2023/09/15 02:33:14;;;;;;;3.63;0.60;;;;;;;;;;5006032;28;20182;-81
2023/09/15 02:35:41;;;;;;;0.80;0.80;;;;;;;;;;5026370;28;20033;-81
2023/09/15 02:38:07;;;;;;;1.38;1.00;;;;;;;;;;4999515;28;20034;-81
2023/09/15 02:40:33;;;;;;;1.15;0.80;;;;;;;;;;5013974;28;20037;-81
2023/09/15 02:42:59;;;;;;;1.42;0.90;;;;;;;;;;5020406;28;20464;-81
2023/09/15 02:45:25;;;;;;;1.30;0.95;;;;;;;;;;5017344;28;20021;-81
2023/09/15 02:47:50;;;;;;;1.55;0.93;;;;;;;;;;5014971;28;20040;-81
2023/09/15 02:50:16;;;;;;;1.25;0.98;;;;;;;;;;5016120;28;20476;-80
2023/09/15 02:52:42;;;;;;;0.95;0.85;;;;;;;;;;5014185;28;20034;-81
2023/09/15 02:55:08;;;;;;;1.95;0.80;;;;;;;;;;5011985;28;20022;-81
2023/09/15 02:57:35;;;;;;;2.53;0.95;;;;;;;;;;5012396;28;20175;-81
2023/09/15 03:00:01;;;;;;;0.98;0.98;;;;;;;;;;5014625;28;20022;-81
2023/09/15 03:02:26;;;;;;;0.98;0.82;;;;;;;;;;5015966;28;20030;-82
2023/09/15 03:04:53;;;;;;;2.00;0.80;;;;;;;;;;5010838;28;20042;-82
2023/09/15 03:07:19;;;;;;;1.70;0.85;;;;;;;;;;5009670;28;20522;-82
2023/09/15 03:09:45;;;;;;;0.70;0.70;;;;;;;;;;5013675;28;20029;-82
2023/09/15 03:12:11;;;;;;;0.50;0.50;;;;;;;;;;5010967;28;20037;-82
2023/09/15 03:14:39;;;;;;;0.57;0.57;;;;;;;;;;5009667;28;20080;-82
2023/09/15 03:17:05;;;;;;;2.45;0.98;;;;;;;;;;5008496;28;20412;-82
2023/09/15 03:19:33;;;;;;;1.58;0.70;;;;;;;;;;5000178;28;20038;-81
2023/09/15 03:21:59;;;;;;;0.70;0.60;;;;;;;;;;5004727;28;20030;-82
2023/09/15 03:24:26;;;;;;;1.05;0.75;;;;;;;;;;5008820;28;20048;-81
2023/09/15 03:26:52;;;;;;;2.25;0.93;;;;;;;;;;5003991;28;20018;-81
2023/09/15 03:29:17;;;;;;;0.82;0.73;;;;;;;;;;5009629;28;20566;-81
2023/09/15 03:31:43;;;;;;;0.90;0.70;;;;;;;;;;5007040;28;20428;-81
2023/09/15 03:34:09;;;;;;;0.68;0.60;;;;;;;;;;5002454;28;20380;-82
2023/09/15 03:36:36;;;;;;;0.90;0.77;;;;;;;;;;5008864;28;20037;-82
2023/09/15 03:39:03;;;;;;;1.00;0.93;;;;;;;;;;4999430;28;20120;-82
2023/09/15 03:41:30;;;;;;;0.45;0.45;;;;;;;;;;5001898;28;20030;-82
2023/09/15 03:43:56;;;;;;;0.65;0.65;;;;;;;;;;5008576;28;20127;-82
2023/09/15 03:46:22;;;;;;;1.13;0.80;;;;;;;;;;5008539;28;20022;-82
2023/09/15 03:48:48;;;;;;;0.77;0.55;;;;;;;;;;5009299;28;20067;-82
2023/09/15 03:51:14;;;;;;;0.50;0.45;;;;;;;;;;5018378;28;20036;-82
2023/09/15 03:53:40;;;;;;;1.30;0.85;;;;;;;;;;5016439;28;20024;-81
2023/09/15 03:56:06;;;;;;;1.10;0.98;;;;;;;;;;5013707;28;20025;-82
2023/09/15 03:58:32;;;;;;;0.75;0.70;;;;;;;;;;5017458;28;20475;-81
2023/09/15 04:00:58;;;;;;;0.85;0.63;;;;;;;;;;5013479;28;20025;-81
2023/09/15 04:03:25;;;;;;;1.65;0.80;;;;;;;;;;5016673;28;20400;-82
2023/09/15 04:05:51;;;;;;;2.08;0.70;;;;;;;;;;5007728;28;20097;-81
2023/09/15 04:08:17;;;;;;;1.30;0.90;;;;;;;;;;5001074;28;20646;-81
2023/09/15 04:10:43;;;;;;;1.17;0.80;;;;;;;;;;5019384;28;20022;-81
2023/09/15 04:13:09;;;;;;;1.23;0.70;;;;;;;;;;5017293;28;20033;-81
2023/09/15 04:15:35;;;;;;;1.77;0.70;;;;;;;;;;5014420;28;20085;-81
2023/09/15 04:18:01;;;;;;;1.20;0.80;;;;;;;;;;5014018;28;20037;-81
2023/09/15 04:20:27;;;;;;;0.80;0.70;;;;;;;;;;5009682;28;20033;-81
2023/09/15 04:22:53;;;;;;;0.63;0.63;;;;;;;;;;5008962;28;20489;-81
2023/09/15 04:25:20;;;;;;;1.67;0.63;;;;;;;;;;5018673;28;20574;-81
2023/09/15 04:27:46;;;;;;;1.13;0.77;;;;;;;;;;5011217;28;20156;-81
2023/09/15 04:30:12;;;;;;;0.60;0.60;;;;;;;;;;5009958;28;20409;-81
2023/09/15 04:32:38;;;;;;;0.80;0.60;;;;;;;;;;5019342;28;20120;-81
2023/09/15 04:35:05;;;;;;;2.05;0.93;;;;;;;;;;5011170;28;20022;-81
2023/09/15 04:37:31;;;;;;;0.77;0.60;;;;;;;;;;5019519;28;20068;-81
2023/09/15 04:39:58;;;;;;;1.15;0.77;;;;;;;;;;5010375;28;20029;-81
2023/09/15 04:42:24;;;;;;;3.22;0.80;;;;;;;;;;5011182;28;20034;-81
2023/09/15 04:44:50;;;;;;;0.88;0.73;;;;;;;;;;5008778;28;20396;-81
2023/09/15 04:47:30;;;;;;;1.30;0.60;;;;;;;;;;5012493;28;20041;-82
2023/09/15 04:49:56;;;;;;;1.85;0.52;;;;;;;;;;5010389;28;20387;-82
2023/09/15 04:52:21;;;;;;;0.82;0.65;;;;;;;;;;5016206;28;20481;-81
2023/09/15 04:54:47;;;;;;;0.50;0.50;;;;;;;;;;5005107;28;20025;-81
2023/09/15 04:57:13;;;;;;;0.50;0.50;;;;;;;;;;5017813;28;20477;-81
2023/09/15 04:59:39;;;;;;;0.88;0.60;;;;;;;;;;5005362;28;20716;-80
2023/09/15 05:02:07;;;;;;;0.60;0.60;;;;;;;;;;5009613;28;20379;-78
2023/09/15 05:04:33;;;;;;;0.50;0.50;;;;;;;;;;5009500;28;20488;-79
2023/09/15 05:06:59;;;;;;;0.75;0.55;;;;;;;;;;5014368;28;20032;-84
2023/09/15 05:09:26;;;;;;;1.25;0.45;;;;;;;;;;5009768;28;20481;-80
2023/09/15 05:11:52;;;;;;;1.05;0.68;;;;;;;;;;5007356;28;20099;-79
2023/09/15 05:14:18;;;;;;;0.50;0.40;;;;;;;;;;5009957;28;20059;-79
2023/09/15 05:16:45;;;;;;;0.50;0.50;;;;;;;;;;5004429;28;20065;-79
2023/09/15 05:19:11;;;;;;;0.45;0.45;;;;;;;;;;5019869;28;20032;-81
2023/09/15 05:21:37;;;;;;;2.53;0.60;;;;;;;;;;5008111;28;20030;-78
2023/09/15 05:24:03;;;;;;;0.70;0.70;;;;;;;;;;5011222;28;20096;-78
2023/09/15 05:26:29;;;;;;;4.63;2.03;;;;;;;;;;5015103;28;20052;-78
2023/09/15 05:28:55;;;;;;;0.82;0.60;;;;;;;;;;5012084;28;20384;-78
2023/09/15 05:31:25;;;;;;;1.13;0.75;;;;;;;;;;5010192;28;20063;-78
2023/09/15 05:33:52;;;;;;;1.25;0.93;;;;;;;;;;5008061;28;20022;-78
2023/09/15 05:36:18;;;;;;;0.63;0.63;;;;;;;;;;5009499;28;20038;-77
2023/09/15 05:38:44;;;;;;;0.73;0.70;;;;;;;;;;5011055;28;20034;-78
2023/09/15 05:41:10;;;;;;;1.65;0.68;;;;;;;;;;5014714;28;20444;-78
2023/09/15 05:43:35;;;;;;;0.55;0.55;;;;;;;;;;5012730;28;20035;-78
2023/09/15 05:46:01;;;;;;;0.88;0.65;;;;;;;;;;5011962;28;20033;-78
2023/09/15 05:48:27;;;;;;;0.60;0.60;;;;;;;;;;5005436;28;20112;-78
2023/09/15 05:50:53;;;;;;;0.68;0.47;;;;;;;;;;5004727;28;20101;-79
2023/09/15 05:53:19;;;;;;;1.45;0.80;;;;;;;;;;5010117;28;20406;-78
2023/09/15 05:55:45;;;;;;;1.13;0.70;;;;;;;;;;5002302;28;20023;-78
2023/09/15 05:58:11;;;;;;;1.13;0.73;;;;;;;;;;5013513;28;20021;-78
2023/09/15 06:00:37;;;;;;;0.65;0.57;;;;;;;;;;5008512;28;20060;-78
2023/09/15 06:03:03;;;;;;;4.07;0.80;;;;;;;;;;5019396;28;20498;-78
2023/09/15 06:05:29;;;;;;;0.80;0.80;;;;;;;;;;5014731;28;20539;-78
2023/09/15 06:07:55;;;;;;;1.27;0.68;;;;;;;;;;5010239;28;20381;-78
2023/09/15 06:10:22;;;;;;;0.80;0.80;;;;;;;;;;5006602;28;20025;-80
2023/09/15 06:12:54;;;;;;;1.13;0.77;;;;;;;;;;5010662;28;20104;-81
2023/09/15 06:15:21;;;;;;;1.00;0.82;;;;;;;;;;5003019;28;20026;-80
2023/09/15 06:17:47;;;;;;;2.47;0.60;;;;;;;;;;5010359;28;20025;-81
2023/09/15 06:20:13;;;;;;;0.65;0.65;;;;;;;;;;5020332;28;20075;-80
2023/09/15 06:22:39;;;;;;;0.75;0.75;;;;;;;;;;5003564;28;20066;-81
2023/09/15 06:25:05;;;;;;;0.82;0.82;;;;;;;;;;5005007;28;20022;-82
2023/09/15 06:27:34;;;;;;;0.98;0.43;;;;;;;;;;4991941;28;20031;-81
2023/09/15 06:30:00;;;;;;;1.05;0.93;;;;;;;;;;5003191;28;20026;-79
2023/09/15 06:32:26;;;;;;;0.82;0.70;;;;;;;;;;5016166;28;20480;-80
2023/09/15 06:34:52;;;;;;;1.23;0.50;;;;;;;;;;5010615;28;20033;-80
2023/09/15 06:37:18;;;;;;;1.27;0.80;;;;;;;;;;5010176;28;20025;-80
2023/09/15 06:39:44;;;;;;;0.57;0.50;;;;;;;;;;5015429;28;20022;-79
2023/09/15 06:42:10;;;;;;;1.58;0.95;;;;;;;;;;5012599;28;20029;-80
2023/09/15 06:44:37;;;;;;;0.60;0.60;;;;;;;;;;5007763;28;20507;-80
2023/09/15 06:47:04;;;;;;;0.57;0.57;;;;;;;;;;4996060;28;20053;-80
2023/09/15 06:49:31;;;;;;;0.60;0.60;;;;;;;;;;4990754;28;20392;-80
2023/09/15 06:51:57;;;;;;;1.15;1.10;;;;;;;;;;4990996;28;20029;-80
2023/09/15 06:54:23;;;;;;;0.77;0.60;;;;;;;;;;4990592;28;20031;-80
2023/09/15 06:56:50;;;;;;;0.63;0.45;;;;;;;;;;4990841;28;20022;-80
2023/09/15 06:59:16;;;;;;;2.20;0.70;;;;;;;;;;4990785;28;20177;-80
2023/09/15 07:01:42;;;;;;;0.63;0.50;;;;;;;;;;4990778;28;20018;-80
2023/09/15 07:04:08;;;;;;;1.00;0.90;;;;;;;;;;4990552;28;20403;-80
2023/09/15 07:06:34;;;;;;;0.63;0.63;;;;;;;;;;4990873;28;20038;-80
2023/09/15 07:09:00;;;;;;;1.02;0.65;;;;;;;;;;4998152;28;20072;-80
2023/09/15 07:11:26;;;;;;;1.05;0.70;;;;;;;;;;5009777;28;20033;-80
2023/09/15 07:13:52;;;;;;;1.17;0.90;;;;;;;;;;5010310;28;20045;-80
2023/09/15 07:16:18;;;;;;;0.93;0.82;;;;;;;;;;5009556;28;20030;-80
2023/09/15 07:18:44;;;;;;;0.88;0.70;;;;;;;;;;5009901;28;20026;-80
2023/09/15 07:21:10;;;;;;;0.80;0.43;;;;;;;;;;5009643;28;20022;-80
2023/09/15 07:23:36;;;;;;;1.38;0.75;;;;;;;;;;5008799;28;20037;-80
2023/09/15 07:26:02;;;;;;;0.90;0.80;;;;;;;;;;5010000;28;20050;-80
2023/09/15 07:28:28;;;;;;;1.17;0.60;;;;;;;;;;5009676;28;20022;-80
2023/09/15 07:31:01;;;;;;;2.80;1.10;;;;;;;;;;5009859;28;20033;-80
2023/09/15 07:33:27;;;;;;;0.82;0.70;;;;;;;;;;5009106;28;20034;-81
2023/09/15 07:35:58;;;;;;;0.70;0.70;;;;;;;;;;5009060;28;20033;-80
2023/09/15 07:38:24;;;;;;;2.77;0.70;;;;;;;;;;5008062;28;20034;-81
2023/09/15 07:40:50;;;;;;;1.15;0.80;;;;;;;;;;5009588;28;20499;-80
2023/09/15 07:43:16;;;;;;;0.73;0.63;;;;;;;;;;5009211;28;20029;-80
2023/09/15 07:45:42;;;;;;;0.80;0.77;;;;;;;;;;5009543;28;20017;-81
2023/09/15 07:48:07;;;;;;;0.77;0.77;;;;;;;;;;5009326;28;20104;-81
2023/09/15 07:50:33;;;;;;;1.25;0.73;;;;;;;;;;5009363;28;20104;-81
2023/09/15 07:53:00;;;;;;;0.47;0.30;;;;;;;;;;5009113;28;20029;-81
2023/09/15 07:55:26;;;;;;;1.00;0.70;;;;;;;;;;5008921;28;20022;-81
2023/09/15 07:57:52;;;;;;;1.15;0.70;;;;;;;;;;5009685;28;20022;-81
2023/09/15 08:00:18;;;;;;;1.00;0.70;;;;;;;;;;5008963;28;20029;-81
2023/09/15 08:02:44;;;;;;;0.85;0.85;;;;;;;;;;5009032;28;20037;-81
2023/09/15 08:05:10;;;;;;;0.50;0.50;;;;;;;;;;5008800;28;20690;-81
2023/09/15 08:07:36;;;;;;;1.10;0.80;;;;;;;;;;5009159;28;20713;-81
2023/09/15 08:10:03;;;;;;;1.15;1.05;;;;;;;;;;5008154;28;20037;-81
2023/09/15 08:12:29;;;;;;;0.60;0.60;;;;;;;;;;5006357;28;20084;-81
2023/09/15 08:14:56;;;;;;;1.27;0.70;;;;;;;;;;4999355;28;20466;-81
2023/09/15 08:17:22;;;;;;;2.63;0.80;;;;;;;;;;5000864;28;20045;-81
2023/09/15 08:19:48;;;;;;;0.60;0.52;;;;;;;;;;5007182;28;20026;-81
2023/09/15 08:22:15;;;;;;;1.02;0.75;;;;;;;;;;5008624;28;20256;-81
2023/09/15 08:24:41;;;;;;;0.43;0.43;;;;;;;;;;5008945;28;20374;-81
2023/09/15 08:27:08;;;;;;;0.82;0.63;;;;;;;;;;5008721;28;20021;-81
2023/09/15 08:29:34;;;;;;;0.80;0.60;;;;;;;;;;4992413;28;20022;-80
2023/09/15 08:32:00;;;;;;;2.15;0.80;;;;;;;;;;4989295;28;20030;-81
2023/09/15 08:34:26;;;;;;;0.80;0.80;;;;;;;;;;4988834;28;20034;-81
2023/09/15 08:36:52;;;;;;;0.73;0.57;;;;;;;;;;4988741;28;20042;-81
2023/09/15 08:39:17;;;;;;;0.65;0.65;;;;;;;;;;4989062;28;20045;-81
2023/09/15 08:41:48;;;;;;;1.25;0.60;;;;;;;;;;4988935;28;20034;-81
2023/09/15 08:44:16;;;;;;;0.70;0.70;;;;;;;;;;4989135;28;20024;-81
2023/09/15 08:46:43;;;;;;;0.77;0.40;;;;;;;;;;4999865;28;20424;-81
2023/09/15 08:49:09;;;;;;;1.10;0.80;;;;;;;;;;5003584;28;20026;-80
2023/09/15 08:51:35;;;;;;;0.68;0.55;;;;;;;;;;4988976;28;20270;-81
2023/09/15 08:54:02;;;;;;;0.50;0.50;;;;;;;;;;4988689;28;20034;-81
2023/09/15 08:56:28;;;;;;;1.08;0.88;;;;;;;;;;4988856;28;20388;-81
2023/09/15 08:58:54;;;;;;;0.63;0.57;;;;;;;;;;4988508;28;20388;-81
2023/09/15 09:01:20;;;;;;;0.60;0.60;;;;;;;;;;4988419;28;20121;-81
2023/09/15 09:03:46;;;;;;;1.30;0.80;;;;;;;;;;4988360;28;20033;-81
2023/09/15 09:06:12;;;;;;;0.88;0.68;;;;;;;;;;4988155;28;20069;-81
2023/09/15 09:08:45;;;;;;;1.23;0.65;;;;;;;;;;4988706;28;20022;-81
2023/09/15 09:11:11;;;;;;;1.08;0.68;;;;;;;;;;4988471;28;20085;-81
2023/09/15 09:13:38;;;;;;;0.63;0.40;;;;;;;;;;4975306;28;20026;-81
2023/09/15 09:16:07;;;;;;;0.80;0.80;;;;;;;;;;4988171;28;20027;-81
2023/09/15 09:18:34;;;;;;;0.60;0.60;;;;;;;;;;4988184;28;20057;-81
2023/09/15 09:21:03;;;;;;;1.10;0.82;;;;;;;;;;4988399;28;20022;-81
2023/09/15 09:23:29;;;;;;;0.82;0.80;;;;;;;;;;4988180;28;20117;-80
2023/09/15 09:25:54;;;;;;;1.25;0.60;;;;;;;;;;4988281;28;20022;-80
2023/09/15 09:28:21;;;;;;;1.63;0.80;;;;;;;;;;4988021;28;20050;-80
2023/09/15 09:30:47;;;;;;;0.70;0.60;;;;;;;;;;4988175;28;20030;-80
2023/09/15 09:33:13;;;;;;;0.73;0.70;;;;;;;;;;4988194;28;20516;-80
2023/09/15 09:35:39;;;;;;;0.70;0.70;;;;;;;;;;4988376;28;20074;-81
2023/09/15 09:38:05;;;;;;;0.80;0.70;;;;;;;;;;4988012;28;20038;-80
2023/09/15 09:40:36;;;;;;;0.75;0.52;;;;;;;;;;4987977;28;20030;-80
2023/09/15 09:43:03;;;;;;;1.13;0.93;;;;;;;;;;4987715;28;20026;-80
2023/09/15 09:45:30;;;;;;;1.42;0.73;;;;;;;;;;4986660;28;20054;-80
2023/09/15 09:47:56;;;;;;;0.80;0.73;;;;;;;;;;4987826;28;20026;-80
2023/09/15 09:50:22;;;;;;;0.50;0.50;;;;;;;;;;4987100;28;20106;-80
2023/09/15 09:52:50;;;;;;;0.80;0.80;;;;;;;;;;4987519;28;20033;-81
2023/09/15 09:55:16;;;;;;;1.58;1.02;;;;;;;;;;4986588;28;20045;-80
2023/09/15 09:57:42;;;;;;;1.27;0.80;;;;;;;;;;4988777;28;20584;-80
2023/09/15 10:00:17;;;;;;;1.10;0.50;;;;;;;;;;4991123;28;20514;-80
2023/09/15 10:02:44;;;;;;;0.93;0.70;;;;;;;;;;4989134;28;20515;-80
2023/09/15 10:05:10;;;;;;;0.77;0.70;;;;;;;;;;4990845;28;20058;-80
2023/09/15 10:07:36;;;;;;;0.75;0.75;;;;;;;;;;4990779;28;20314;-80
2023/09/15 10:10:06;;;;;;;0.70;0.70;;;;;;;;;;4989140;28;20038;-80
2023/09/15 10:12:32;;;;;;;0.68;0.60;;;;;;;;;;4981129;28;20054;-79
2023/09/15 10:14:58;;;;;;;0.88;0.70;;;;;;;;;;4987416;28;20046;-80
2023/09/15 10:17:25;;;;;;;3.60;1.15;;;;;;;;;;4990357;28;20030;-80
2023/09/15 10:19:51;;;;;;;0.60;0.50;;;;;;;;;;4990664;28;20117;-80
2023/09/15 10:22:17;;;;;;;0.68;0.57;;;;;;;;;;4990266;28;20040;-80
2023/09/15 10:24:44;;;;;;;0.40;0.40;;;;;;;;;;4990810;28;20496;-80
2023/09/15 10:27:11;;;;;;;0.50;0.50;;;;;;;;;;4989874;28;20432;-80
2023/09/15 10:29:37;;;;;;;1.48;0.80;;;;;;;;;;4990060;28;20070;-81
2023/09/15 10:32:04;;;;;;;0.75;0.70;;;;;;;;;;4990965;28;20033;-80
2023/09/15 10:34:30;;;;;;;0.50;0.50;;;;;;;;;;4990263;28;20105;-80
2023/09/15 10:36:59;;;;;;;0.65;0.60;;;;;;;;;;4990612;28;20030;-80
2023/09/15 10:39:35;;;;;;;1.08;0.82;;;;;;;;;;4990420;28;20477;-80
2023/09/15 10:42:08;;;;;;;0.50;0.50;;;;;;;;;;4991158;28;20167;-80
2023/09/15 10:44:34;;;;;;;1.73;0.73;;;;;;;;;;4991009;28;20117;-80
2023/09/15 10:47:00;;;;;;;4.50;1.55;;;;;;;;;;4990999;28;20545;-79
2023/09/15 10:49:26;;;;;;;0.52;0.50;;;;;;;;;;4990796;28;20018;-80
2023/09/15 10:51:53;;;;;;;0.88;0.73;;;;;;;;;;4990923;28;20389;-80
2023/09/15 10:54:19;;;;;;;0.73;0.57;;;;;;;;;;4990725;28;20037;-80
2023/09/15 10:56:46;;;;;;;0.47;0.47;;;;;;;;;;4990958;28;20050;-80
2023/09/15 10:59:12;;;;;;;0.57;0.45;;;;;;;;;;4990859;28;20041;-80
2023/09/15 11:01:43;;;;;;;0.63;0.60;;;;;;;;;;4973095;28;20401;-80
2023/09/15 11:04:10;;;;;;;0.70;0.60;;;;;;;;;;4990734;28;20018;-80
2023/09/15 11:06:37;;;;;;;0.60;0.60;;;;;;;;;;4990509;28;20048;-80
2023/09/15 11:09:05;;;;;;;0.60;0.60;;;;;;;;;;4990300;28;20019;-80
2023/09/15 11:11:31;;;;;;;0.77;0.65;;;;;;;;;;4988827;28;20028;-80
2023/09/15 11:13:57;;;;;;;0.40;0.40;;;;;;;;;;4979446;28;20027;-79
2023/09/15 11:16:26;;;;;;;1.02;0.60;;;;;;;;;;4990142;28;20049;-80
2023/09/15 11:18:52;;;;;;;1.33;0.73;;;;;;;;;;4990655;28;20046;-80
2023/09/15 11:21:18;;;;;;;1.23;0.60;;;;;;;;;;4989928;28;20034;-80
2023/09/15 11:23:47;;;;;;;1.13;0.70;;;;;;;;;;4990272;28;20023;-80
2023/09/15 11:26:14;;;;;;;0.70;0.70;;;;;;;;;;4990134;28;20513;-80
2023/09/15 11:28:40;;;;;;;0.65;0.63;;;;;;;;;;4990227;28;20302;-80
2023/09/15 11:31:07;;;;;;;0.60;0.60;;;;;;;;;;4990057;28;20041;-80
2023/09/15 11:33:33;;;;;;;0.70;0.63;;;;;;;;;;4990026;28;20494;-80
2023/09/15 11:36:00;;;;;;;1.05;0.82;;;;;;;;;;4990132;28;20080;-79
2023/09/15 11:38:26;;;;;;;0.60;0.60;;;;;;;;;;4989889;28;20034;-80
2023/09/15 11:40:53;;;;;;;0.85;0.45;;;;;;;;;;4989806;28;20034;-80
2023/09/15 11:43:22;;;;;;;1.15;0.80;;;;;;;;;;4989870;28;20023;-80
2023/09/15 11:45:50;;;;;;;0.90;0.60;;;;;;;;;;4989995;28;20389;-80
2023/09/15 11:48:16;;;;;;;1.50;0.80;;;;;;;;;;4989836;28;20037;-80
2023/09/15 11:50:42;;;;;;;0.47;0.40;;;;;;;;;;4989698;28;20038;-80
2023/09/15 11:53:08;;;;;;;0.60;0.60;;;;;;;;;;4989795;28;20164;-80
2023/09/15 11:55:35;;;;;;;0.57;0.57;;;;;;;;;;4989462;28;20063;-80
2023/09/15 11:58:01;;;;;;;0.60;0.60;;;;;;;;;;4989776;28;20057;-80
2023/09/15 12:00:31;;;;;;;0.70;0.70;;;;;;;;;;4989207;28;20034;-80
2023/09/15 12:02:58;;;;;;;1.25;0.77;;;;;;;;;;4989640;28;20389;-79
2023/09/15 12:05:26;;;;;;;2.17;0.95;;;;;;;;;;4999105;28;20046;-79
2023/09/15 12:07:52;;;;;;;1.33;0.82;;;;;;;;;;5009379;28;20025;-80
2023/09/15 12:10:19;;;;;;;0.73;0.73;;;;;;;;;;5008991;28;20029;-80
2023/09/15 12:12:45;;;;;;;1.55;0.80;;;;;;;;;;5009000;28;20061;-80
2023/09/15 12:15:14;;;;;;;0.70;0.50;;;;;;;;;;5009185;28;20033;-80
2023/09/15 12:17:46;;;;;;;0.60;0.60;;;;;;;;;;5008918;28;20029;-80
2023/09/15 12:20:13;;;;;;;0.77;0.60;;;;;;;;;;5008376;28;20109;-80
2023/09/15 12:22:40;;;;;;;1.33;0.73;;;;;;;;;;5008627;28;20034;-80
2023/09/15 12:25:07;;;;;;;0.52;0.47;;;;;;;;;;5008818;28;20022;-80
2023/09/15 12:27:33;;;;;;;1.73;1.08;;;;;;;;;;5008755;28;20072;-80
2023/09/15 12:30:03;;;;;;;0.52;0.50;;;;;;;;;;5008724;28;20029;-80
2023/09/15 12:32:31;;;;;;;1.00;0.70;;;;;;;;;;5008631;28;20357;-80
2023/09/15 12:34:57;;;;;;;0.57;0.57;;;;;;;;;;5008865;28;20033;-79
2023/09/15 12:37:26;;;;;;;0.85;0.70;;;;;;;;;;5008231;28;20033;-79
2023/09/15 12:39:52;;;;;;;0.60;0.60;;;;;;;;;;5008825;28;20033;-79
2023/09/15 12:42:18;;;;;;;0.55;0.55;;;;;;;;;;5008347;28;20026;-80
2023/09/15 12:44:45;;;;;;;0.40;0.40;;;;;;;;;;5008563;28;20033;-80
2023/09/15 12:47:11;;;;;;;1.13;0.77;;;;;;;;;;5008796;28;20028;-80
2023/09/15 12:49:37;;;;;;;0.60;0.60;;;;;;;;;;5008393;28;20085;-79
2023/09/15 12:52:04;;;;;;;0.68;0.68;;;;;;;;;;5008246;28;20091;-80
2023/09/15 12:54:30;;;;;;;0.57;0.57;;;;;;;;;;5008290;28;20514;-80
2023/09/15 12:56:57;;;;;;;0.70;0.70;;;;;;;;;;5008369;28;20022;-79
2023/09/15 12:59:29;;;;;;;1.75;0.60;;;;;;;;;;5008202;28;20472;-79
2023/09/15 13:01:56;;;;;;;0.55;0.52;;;;;;;;;;5008227;28;20112;-80
2023/09/15 13:04:23;;;;;;;0.98;0.60;;;;;;;;;;5003320;28;20056;-79
2023/09/15 13:06:50;;;;;;;2.13;0.70;;;;;;;;;;5003103;28;20037;-80
2023/09/15 13:09:16;;;;;;;0.85;0.50;;;;;;;;;;5001700;28;20443;-77
2023/09/15 13:11:42;;;;;;;0.88;0.80;;;;;;;;;;5000061;28;20026;-76
2023/09/15 13:14:08;;;;;;;1.23;0.73;;;;;;;;;;5005180;28;20041;-76
2023/09/15 13:16:34;;;;;;;0.55;0.55;;;;;;;;;;5003733;28;20034;-76
2023/09/15 13:19:01;;;;;;;0.65;0.35;;;;;;;;;;5006123;28;20519;-76
2023/09/15 13:21:33;;;;;;;0.70;0.57;;;;;;;;;;5008075;28;20267;-76
2023/09/15 13:23:59;;;;;;;1.05;0.90;;;;;;;;;;5007830;28;20025;-76
2023/09/15 13:26:25;;;;;;;0.82;0.60;;;;;;;;;;5001617;28;20030;-77
2023/09/15 13:28:51;;;;;;;1.08;0.77;;;;;;;;;;4999083;28;20485;-77
2023/09/15 13:31:17;;;;;;;0.65;0.60;;;;;;;;;;5003551;28;20412;-76
2023/09/15 13:33:43;;;;;;;0.50;0.50;;;;;;;;;;5010886;28;20038;-76
2023/09/15 13:36:09;;;;;;;1.00;0.60;;;;;;;;;;5008484;28;20042;-76
2023/09/15 13:38:35;;;;;;;0.60;0.60;;;;;;;;;;5001145;28;20026;-76
2023/09/15 13:41:01;;;;;;;0.85;0.80;;;;;;;;;;5008201;28;20030;-76
2023/09/15 13:43:28;;;;;;;0.60;0.60;;;;;;;;;;4993095;28;20029;-76
2023/09/15 13:45:55;;;;;;;0.95;0.90;;;;;;;;;;5000944;28;20108;-76
2023/09/15 13:48:21;;;;;;;1.25;0.70;;;;;;;;;;4997627;28;20018;-76
2023/09/15 13:50:48;;;;;;;0.52;0.45;;;;;;;;;;4995876;28;20038;-77
2023/09/15 13:53:14;;;;;;;1.08;0.70;;;;;;;;;;5011698;28;20028;-76
2023/09/15 13:55:40;;;;;;;0.50;0.50;;;;;;;;;;5000626;28;20029;-76
2023/09/15 13:58:06;;;;;;;0.90;0.73;;;;;;;;;;5006288;28;20030;-76
2023/09/15 14:00:32;;;;;;;1.40;0.50;;;;;;;;;;5005292;28;20030;-76
2023/09/15 14:02:58;;;;;;;0.50;0.50;;;;;;;;;;5009370;28;20037;-76
2023/09/15 14:05:24;;;;;;;0.68;0.43;;;;;;;;;;5009061;28;20050;-77
2023/09/15 14:07:50;;;;;;;0.70;0.70;;;;;;;;;;5011128;28;20041;-75
2023/09/15 14:10:20;;;;;;;0.55;0.55;;;;;;;;;;5005189;28;20026;-75
2023/09/15 14:12:46;;;;;;;0.90;0.70;;;;;;;;;;5007917;28;20030;-76
2023/09/15 14:15:12;;;;;;;0.80;0.75;;;;;;;;;;4997973;28;20070;-76
2023/09/15 14:17:39;;;;;;;0.57;0.57;;;;;;;;;;4999650;28;20057;-76
2023/09/15 14:20:05;;;;;;;0.50;0.50;;;;;;;;;;5009934;28;20113;-76
2023/09/15 14:22:31;;;;;;;0.65;0.63;;;;;;;;;;4998349;28;20022;-76
2023/09/15 14:24:58;;;;;;;0.57;0.57;;;;;;;;;;5006192;28;20026;-79
2023/09/15 14:27:24;;;;;;;0.52;0.52;;;;;;;;;;5007973;28;20022;-78
2023/09/15 14:29:50;;;;;;;0.85;0.50;;;;;;;;;;5003909;28;20033;-76
2023/09/15 14:32:16;;;;;;;1.10;0.50;;;;;;;;;;5008925;28;20441;-76
2023/09/15 14:34:42;;;;;;;0.75;0.43;;;;;;;;;;5006918;28;20069;-76
2023/09/15 14:37:09;;;;;;;1.05;0.82;;;;;;;;;;5003063;28;20034;-76
2023/09/15 14:39:35;;;;;;;0.43;0.43;;;;;;;;;;5009484;28;20034;-77